createdAt,value
2018-12-30T00:01:44.168Z,3.50
2018-12-30T00:04:18.036Z,3.33
2018-12-30T00:07:01.007Z,2.97
2018-12-30T00:09:35.344Z,2.77
2018-12-30T00:12:05.659Z,3.03
2018-12-30T00:14:39.104Z,2.73
2018-12-30T00:17:12.153Z,2.67
2018-12-30T00:19:42.821Z,2.80
2018-12-30T00:22:13.879Z,3.03
2018-12-30T00:24:46.125Z,3.30
2018-12-30T00:27:19.362Z,2.90
2018-12-30T00:29:53.187Z,2.63
2018-12-30T00:32:25.067Z,3.03
2018-12-30T00:34:58.568Z,2.80
2018-12-30T00:37:29.239Z,3.17
2018-12-30T00:40:01.029Z,3.20
2018-12-30T00:42:32.150Z,5.00
2018-12-30T00:45:03.532Z,2.83
2018-12-30T00:47:40.564Z,2.93
2018-12-30T00:50:12.650Z,3.03
2018-12-30T00:52:44.167Z,3.03
2018-12-30T00:55:15.147Z,3.20
2018-12-30T00:57:49.325Z,3.23
2018-12-30T01:00:22.535Z,3.13
2018-12-30T01:02:57.967Z,2.87
2018-12-30T01:05:29.256Z,3.20
2018-12-30T01:08:03.278Z,2.87
2018-12-30T01:10:34.914Z,2.73
2018-12-30T01:13:07.976Z,3.20
2018-12-30T01:15:44.372Z,3.03
2018-12-30T01:18:17.959Z,3.67
2018-12-30T01:20:48.956Z,3.40
2018-12-30T01:23:21.579Z,3.30
2018-12-30T01:25:54.672Z,2.90
2018-12-30T01:28:26.800Z,3.40
2018-12-30T01:31:11.154Z,3.00
2018-12-30T01:33:46.335Z,3.00
2018-12-30T01:36:21.022Z,3.00
2018-12-30T01:38:54.888Z,3.87
2018-12-30T01:41:27.997Z,3.10
2018-12-30T01:44:00.017Z,3.10
2018-12-30T01:46:34.556Z,3.20
2018-12-30T01:49:08.872Z,2.93
2018-12-30T01:51:53.841Z,3.20
2018-12-30T01:54:37.789Z,3.07
2018-12-30T01:57:21.616Z,3.67
2018-12-30T01:59:57.588Z,2.97
2018-12-30T02:02:31.478Z,3.13
2018-12-30T02:05:07.237Z,3.40
2018-12-30T02:07:39.362Z,3.20
2018-12-30T02:10:12.324Z,3.37
2018-12-30T02:12:44.207Z,3.53
2018-12-30T02:15:15.434Z,2.90
2018-12-30T02:17:46.560Z,2.97
2018-12-30T02:20:19.019Z,3.10
2018-12-30T02:23:02.154Z,3.60
2018-12-30T02:25:36.458Z,3.33
2018-12-30T02:28:08.774Z,3.43
2018-12-30T02:30:45.458Z,2.93
2018-12-30T02:33:19.790Z,3.73
2018-12-30T02:35:56.017Z,3.13
2018-12-30T02:38:33.259Z,3.00
2018-12-30T02:41:05.907Z,3.17
2018-12-30T02:43:40.634Z,3.70
2018-12-30T02:46:11.867Z,3.20
2018-12-30T02:48:44.010Z,3.23
2018-12-30T02:51:20.929Z,3.07
2018-12-30T02:53:56.490Z,3.10
2018-12-30T02:56:29.707Z,3.60
2018-12-30T02:59:01.160Z,3.07
2018-12-30T03:01:37.682Z,2.90
2018-12-30T03:04:11.936Z,3.13
2018-12-30T03:06:50.563Z,2.90
2018-12-30T03:09:29.220Z,3.00
2018-12-30T03:12:01.119Z,3.43
2018-12-30T03:14:32.353Z,3.73
2018-12-30T03:17:03.824Z,2.60
2018-12-30T03:19:35.781Z,2.73
2018-12-30T03:22:10.803Z,2.97
2018-12-30T03:24:50.039Z,2.80
2018-12-30T03:27:22.827Z,2.83
2018-12-30T03:29:55.733Z,2.90
2018-12-30T03:32:31.170Z,4.13
2018-12-30T03:35:03.032Z,3.87
2018-12-30T03:37:39.521Z,2.90
2018-12-30T03:40:14.548Z,2.77
2018-12-30T03:42:46.285Z,2.90
2018-12-30T03:45:18.983Z,3.10
2018-12-30T03:47:53.740Z,2.97
2018-12-30T03:50:26.908Z,3.17
2018-12-30T03:52:58.973Z,2.80
2018-12-30T03:55:33.989Z,2.80
2018-12-30T03:58:10.659Z,2.90
2018-12-30T04:00:41.952Z,3.17
2018-12-30T04:03:15.100Z,2.67
2018-12-30T04:05:47.912Z,2.87
2018-12-30T04:08:24.352Z,3.27
2018-12-30T04:10:59.366Z,2.97
2018-12-30T04:13:34.745Z,3.30
2018-12-30T04:16:05.897Z,3.00
2018-12-30T04:18:38.582Z,3.00
2018-12-30T04:21:10.441Z,3.17
2018-12-30T04:23:43.726Z,2.60
2018-12-30T04:26:14.864Z,2.90
2018-12-30T04:28:46.847Z,2.90
2018-12-30T04:31:19.331Z,2.90
2018-12-30T04:33:52.722Z,2.53
2018-12-30T04:36:26.662Z,4.80
2018-12-30T04:39:00.112Z,4.27
2018-12-30T04:41:32.717Z,3.03
2018-12-30T04:44:08.284Z,2.90
2018-12-30T04:46:41.783Z,2.83
2018-12-30T04:49:15.200Z,2.90
2018-12-30T04:51:48.691Z,3.20
2018-12-30T04:54:23.117Z,2.53
2018-12-30T04:57:15.258Z,3.10
2018-12-30T04:59:48.742Z,3.30
2018-12-30T05:02:20.780Z,2.43
2018-12-30T05:04:55.222Z,3.47
2018-12-30T05:07:33.679Z,2.90
2018-12-30T05:10:18.204Z,2.90
2018-12-30T05:13:16.572Z,3.17
2018-12-30T05:15:48.697Z,4.07
2018-12-30T05:18:22.234Z,3.10
2018-12-30T05:20:53.586Z,2.90
2018-12-30T05:23:24.722Z,3.37
2018-12-30T05:25:57.993Z,2.80
2018-12-30T05:28:31.834Z,2.80
2018-12-30T05:31:03.220Z,2.70
2018-12-30T05:33:34.683Z,2.83
2018-12-30T05:36:05.714Z,2.90
2018-12-30T05:38:35.985Z,2.47
2018-12-30T05:41:09.540Z,2.93
2018-12-30T05:43:42.002Z,3.40
2018-12-30T05:46:15.551Z,3.00
2018-12-30T05:48:47.200Z,3.00
2018-12-30T05:51:17.978Z,2.63
2018-12-30T05:53:51.597Z,2.90
2018-12-30T05:56:29.546Z,3.40
2018-12-30T05:59:05.988Z,3.40
2018-12-30T06:01:39.255Z,3.30
2018-12-30T06:04:11.846Z,3.50
2018-12-30T06:06:48.695Z,3.50
2018-12-30T06:09:22.225Z,2.90
2018-12-30T06:11:56.233Z,4.13
2018-12-30T06:14:30.436Z,2.83
2018-12-30T06:17:03.306Z,3.37
2018-12-30T06:19:34.631Z,3.10
2018-12-30T06:22:05.287Z,3.10
2018-12-30T06:24:37.725Z,2.93
2018-12-30T06:27:09.608Z,3.00
2018-12-30T06:29:45.464Z,3.00
2018-12-30T06:32:19.673Z,2.97
2018-12-30T06:34:50.894Z,2.83
2018-12-30T06:37:28.745Z,2.73
2018-12-30T06:40:01.112Z,3.00
2018-12-30T06:42:33.936Z,3.00
2018-12-30T06:45:06.727Z,3.03
2018-12-30T06:47:38.983Z,2.70
2018-12-30T06:50:12.391Z,3.07
2018-12-30T06:52:44.221Z,3.43
2018-12-30T06:55:16.162Z,2.90
2018-12-30T06:57:48.205Z,2.80
2018-12-30T07:00:19.148Z,2.57
2018-12-30T07:02:52.467Z,2.90
2018-12-30T07:05:24.087Z,3.00
2018-12-30T07:07:56.027Z,3.80
2018-12-30T07:10:28.099Z,3.20
2018-12-30T07:13:03.844Z,3.00
2018-12-30T07:15:35.909Z,3.60
2018-12-30T07:18:07.745Z,2.80
2018-12-30T07:20:45.026Z,2.87
2018-12-30T07:23:26.919Z,3.03
2018-12-30T07:25:57.944Z,3.10
2018-12-30T07:28:29.453Z,3.20
2018-12-30T07:31:00.478Z,3.30
2018-12-30T07:33:32.451Z,3.17
2018-12-30T07:36:03.162Z,2.80
2018-12-30T07:38:33.489Z,2.73
2018-12-30T07:41:04.976Z,2.67
2018-12-30T07:43:38.878Z,2.77
2018-12-30T07:46:11.549Z,3.40
2018-12-30T07:48:43.513Z,2.93
2018-12-30T07:51:14.983Z,2.90
2018-12-30T07:53:47.259Z,2.70
2018-12-30T07:56:18.299Z,2.80
2018-12-30T07:58:51.269Z,2.60
2018-12-30T08:01:22.712Z,2.70
2018-12-30T08:03:54.970Z,2.30
2018-12-30T08:06:28.991Z,2.87
2018-12-30T08:09:02.946Z,2.47
2018-12-30T08:11:44.052Z,3.40
2018-12-30T08:14:19.088Z,3.00
2018-12-30T08:16:50.540Z,2.70
2018-12-30T08:19:22.289Z,2.63
2018-12-30T08:21:53.812Z,2.40
2018-12-30T08:24:30.765Z,2.73
2018-12-30T08:27:07.796Z,2.53
2018-12-30T08:29:44.066Z,2.63
2018-12-30T08:32:17.218Z,2.83
2018-12-30T08:34:49.934Z,2.60
2018-12-30T08:37:21.224Z,2.70
2018-12-30T08:40:10.318Z,2.67
2018-12-30T08:42:43.688Z,3.17
2018-12-30T08:45:16.377Z,2.70
2018-12-30T08:47:49.589Z,2.57
2018-12-30T08:50:22.167Z,2.90
2018-12-30T08:52:53.603Z,3.17
2018-12-30T08:58:26.351Z,2.77
2018-12-30T09:00:59.968Z,2.70
2018-12-30T09:03:31.730Z,2.43
2018-12-30T09:06:04.280Z,2.87
2018-12-30T09:08:34.914Z,2.40
2018-12-30T09:11:06.662Z,2.37
2018-12-30T09:13:37.993Z,2.47
2018-12-30T09:16:10.602Z,2.37
2018-12-30T09:18:56.420Z,2.50
2018-12-30T09:21:28.954Z,2.50
2018-12-30T09:24:02.692Z,3.10
2018-12-30T09:26:35.841Z,3.00
2018-12-30T09:29:07.918Z,2.57
2018-12-30T09:31:46.129Z,2.50
2018-12-30T09:34:21.188Z,2.70
2018-12-30T09:36:56.229Z,2.97
2018-12-30T09:39:31.364Z,2.67
2018-12-30T09:42:05.910Z,3.00
2018-12-30T09:44:39.248Z,3.00
2018-12-30T09:47:13.405Z,2.50
2018-12-30T09:49:47.519Z,3.37
2018-12-30T09:52:20.421Z,3.20
2018-12-30T09:54:56.441Z,2.90
2018-12-30T09:57:49.010Z,3.30
2018-12-30T10:00:24.465Z,3.10
2018-12-30T10:02:57.929Z,3.00
2018-12-30T10:05:39.777Z,3.80
2018-12-30T10:08:13.462Z,3.37
2018-12-30T10:10:44.172Z,3.63
2018-12-30T10:13:17.807Z,2.97
2018-12-30T10:15:48.898Z,3.40
2018-12-30T10:18:23.144Z,3.27
2018-12-30T10:20:56.765Z,3.67
2018-12-30T10:23:29.852Z,3.27
2018-12-30T10:26:02.926Z,4.37
2018-12-30T10:28:34.909Z,3.90
2018-12-30T10:31:07.445Z,2.97
2018-12-30T10:33:43.463Z,3.70
2018-12-30T10:36:17.042Z,2.97
2018-12-30T10:38:49.075Z,3.23
2018-12-30T10:41:24.187Z,3.23
2018-12-30T10:43:57.040Z,3.67
2018-12-30T10:46:27.379Z,3.10
2018-12-30T10:48:59.311Z,3.30
2018-12-30T10:51:36.593Z,3.73
2018-12-30T10:54:09.093Z,3.60
2018-12-30T10:56:49.955Z,4.27
2018-12-30T10:59:23.253Z,3.87
2018-12-30T11:01:54.515Z,4.40
2018-12-30T11:04:27.300Z,4.50
2018-12-30T11:06:57.956Z,4.40
2018-12-30T11:09:29.330Z,4.50
2018-12-30T11:12:00.373Z,4.87
2018-12-30T11:14:31.578Z,5.63
2018-12-30T11:17:02.798Z,5.27
2018-12-30T11:19:38.670Z,5.07
2018-12-30T11:22:14.891Z,5.63
2018-12-30T11:24:47.317Z,5.37
2018-12-30T11:27:25.085Z,5.17
2018-12-30T11:30:31.156Z,4.73
2018-12-30T11:33:03.502Z,4.70
2018-12-30T11:35:38.461Z,4.47
2018-12-30T11:38:13.018Z,5.70
2018-12-30T11:40:50.872Z,4.57
2018-12-30T11:43:23.647Z,5.03
2018-12-30T11:46:00.943Z,5.20
2018-12-30T11:48:36.094Z,4.40
2018-12-30T11:51:16.778Z,5.03
2018-12-30T11:53:50.266Z,5.03
2018-12-30T11:56:21.908Z,4.67
2018-12-30T11:58:53.433Z,4.97
2018-12-30T12:01:26.720Z,5.77
2018-12-30T12:03:59.535Z,5.00
2018-12-30T12:06:35.337Z,4.73
2018-12-30T12:09:11.864Z,5.03
2018-12-30T12:11:48.806Z,5.00
2018-12-30T12:14:20.268Z,4.63
2018-12-30T12:16:52.616Z,5.07
2018-12-30T12:19:24.308Z,4.43
2018-12-30T12:21:56.740Z,5.17
2018-12-30T12:24:32.119Z,4.60
2018-12-30T12:27:15.762Z,5.40
2018-12-30T12:29:50.275Z,4.60
2018-12-30T12:32:21.394Z,5.40
2018-12-30T12:34:55.987Z,4.93
2018-12-30T12:37:29.724Z,5.23
2018-12-30T12:40:07.900Z,5.23
2018-12-30T12:42:39.574Z,4.50
2018-12-30T12:45:13.325Z,4.87
2018-12-30T12:47:43.933Z,4.27
2018-12-30T12:50:16.391Z,5.70
2018-12-30T12:52:48.719Z,5.13
2018-12-30T12:55:21.075Z,5.13
2018-12-30T12:57:54.208Z,4.53
2018-12-30T13:00:25.374Z,4.73
2018-12-30T13:02:58.116Z,5.03
2018-12-30T13:05:29.047Z,4.43
2018-12-30T13:08:02.177Z,4.60
2018-12-30T13:10:34.131Z,4.40
2018-12-30T13:13:06.667Z,5.23
2018-12-30T13:15:39.286Z,4.30
2018-12-30T13:18:10.592Z,4.20
2018-12-30T13:20:51.539Z,4.97
2018-12-30T13:23:24.342Z,4.60
2018-12-30T13:25:59.432Z,5.30
2018-12-30T13:28:37.977Z,4.53
2018-12-30T13:31:14.496Z,4.30
2018-12-30T13:33:52.534Z,4.40
2018-12-30T13:36:24.825Z,4.27
2018-12-30T13:38:57.625Z,4.60
2018-12-30T13:41:29.267Z,4.37
2018-12-30T13:44:00.532Z,3.93
2018-12-30T13:46:32.458Z,3.80
2018-12-30T13:49:03.394Z,4.40
2018-12-30T13:51:35.994Z,4.27
2018-12-30T13:54:12.016Z,4.30
2018-12-30T13:56:44.574Z,4.43
2018-12-30T13:59:15.803Z,4.33
2018-12-30T14:01:46.216Z,4.47
2018-12-30T14:04:17.579Z,4.20
2018-12-30T14:06:48.970Z,3.90
2018-12-30T14:09:20.793Z,4.10
2018-12-30T14:11:51.550Z,4.17
2018-12-30T14:14:23.063Z,4.17
2018-12-30T14:16:55.640Z,4.27
2018-12-30T14:19:27.004Z,4.57
2018-12-30T14:22:10.573Z,4.63
2018-12-30T14:24:55.259Z,5.60
2018-12-30T14:27:26.390Z,4.70
2018-12-30T14:30:02.089Z,4.60
2018-12-30T14:32:34.920Z,5.03
2018-12-30T14:35:32.639Z,6.17
2018-12-30T14:38:04.826Z,5.30
2018-12-30T14:40:41.926Z,5.80
2018-12-30T14:43:14.151Z,6.83
2018-12-30T14:45:51.190Z,5.77
2018-12-30T14:48:29.660Z,7.60
2018-12-30T14:51:03.679Z,7.63
2018-12-30T14:53:37.746Z,7.93
2018-12-30T14:56:11.746Z,8.10
2018-12-30T14:58:50.778Z,8.03
2018-12-30T15:01:22.878Z,9.13
2018-12-30T15:03:56.182Z,8.73
2018-12-30T15:06:31.640Z,8.40
2018-12-30T15:09:08.378Z,7.67
2018-12-30T15:11:41.510Z,7.63
2018-12-30T15:14:31.822Z,7.63
2018-12-30T15:17:05.120Z,6.90
2018-12-30T15:19:35.736Z,7.33
2018-12-30T15:22:12.192Z,13.37
2018-12-30T15:24:48.138Z,7.23
2018-12-30T15:27:21.678Z,7.17
2018-12-30T15:29:57.335Z,7.03
2018-12-30T15:32:34.541Z,7.07
2018-12-30T15:35:06.758Z,7.30
2018-12-30T15:37:43.017Z,7.33
2018-12-30T15:40:15.448Z,6.97
2018-12-30T15:42:49.312Z,7.40
2018-12-30T15:45:19.953Z,7.57
2018-12-30T15:47:56.587Z,7.30
2018-12-30T15:50:32.295Z,7.33
2018-12-30T15:53:04.562Z,7.10
2018-12-30T15:55:36.929Z,6.83
2018-12-30T15:58:08.773Z,7.73
2018-12-30T16:00:41.453Z,9.17
2018-12-30T16:03:15.842Z,7.80
2018-12-30T16:05:47.278Z,7.33
2018-12-30T16:08:27.613Z,7.77
2018-12-30T16:11:02.646Z,8.50
2018-12-30T16:13:38.572Z,9.03
2018-12-30T16:16:12.069Z,8.80
2018-12-30T16:18:43.978Z,9.43
2018-12-30T16:21:18.820Z,8.10
2018-12-30T16:23:54.152Z,8.10
2018-12-30T16:26:27.663Z,7.80
2018-12-30T16:29:00.857Z,8.33
2018-12-30T16:31:34.309Z,8.67
2018-12-30T16:34:08.550Z,8.53
2018-12-30T16:36:40.305Z,8.93
2018-12-30T16:39:14.627Z,9.03
2018-12-30T16:41:47.672Z,9.57
2018-12-30T16:44:21.429Z,9.10
2018-12-30T16:46:52.894Z,8.40
2018-12-30T16:49:25.022Z,9.03
2018-12-30T16:51:55.615Z,9.20
2018-12-30T16:54:26.410Z,8.83
2018-12-30T16:56:57.558Z,9.00
2018-12-30T16:59:30.247Z,9.00
2018-12-30T17:02:03.696Z,9.13
2018-12-30T17:04:40.965Z,9.50
2018-12-30T17:07:15.197Z,10.07
2018-12-30T17:09:47.163Z,10.13
2018-12-30T17:12:18.318Z,10.50
2018-12-30T17:14:51.465Z,11.60
2018-12-30T17:17:24.519Z,11.50
2018-12-30T17:20:01.120Z,11.03
2018-12-30T17:22:32.569Z,12.00
2018-12-30T17:25:07.737Z,11.10
2018-12-30T17:27:42.335Z,12.00
2018-12-30T17:30:18.892Z,12.70
2018-12-30T17:32:52.730Z,12.83
2018-12-30T17:35:26.292Z,13.10
2018-12-30T17:38:00.528Z,11.70
2018-12-30T17:40:38.557Z,12.10
2018-12-30T17:43:11.465Z,13.10
2018-12-30T17:45:47.330Z,13.03
2018-12-30T17:48:24.082Z,12.37
2018-12-30T17:51:02.408Z,13.37
2018-12-30T17:53:34.227Z,12.93
2018-12-30T17:56:07.452Z,13.33
2018-12-30T17:58:39.813Z,13.60
2018-12-30T18:01:15.060Z,12.87
2018-12-30T18:03:49.256Z,13.07
2018-12-30T18:06:22.242Z,13.13
2018-12-30T18:08:57.383Z,13.53
2018-12-30T18:11:31.624Z,14.03
2018-12-30T18:14:06.998Z,13.90
2018-12-30T18:16:43.250Z,15.83
2018-12-30T18:19:15.675Z,26.07
2018-12-30T18:21:47.959Z,16.50
2018-12-30T18:24:21.246Z,19.00
2018-12-30T18:27:06.178Z,20.57
2018-12-30T18:29:40.666Z,13.77
2018-12-30T18:32:13.536Z,14.63
2018-12-30T18:35:18.575Z,15.20
2018-12-30T18:37:53.940Z,14.37
2018-12-30T18:40:26.185Z,15.43
2018-12-30T18:42:58.096Z,15.50
2018-12-30T18:45:29.238Z,15.67
2018-12-30T18:48:02.573Z,15.50
2018-12-30T18:50:33.345Z,15.73
2018-12-30T18:53:04.063Z,15.13
2018-12-30T18:55:39.889Z,15.60
2018-12-30T18:58:16.344Z,15.50
2018-12-30T19:00:47.436Z,14.53
2018-12-30T19:03:18.461Z,15.23
2018-12-30T19:05:52.503Z,14.97
2018-12-30T19:08:25.687Z,14.33
2018-12-30T19:10:57.981Z,15.53
2018-12-30T19:13:35.787Z,15.47
2018-12-30T19:16:12.751Z,15.43
2018-12-30T19:18:46.057Z,14.50
2018-12-30T19:21:16.829Z,14.87
2018-12-30T19:23:48.715Z,15.20
2018-12-30T19:26:21.220Z,14.90
2018-12-30T19:28:52.225Z,15.60
2018-12-30T19:31:23.310Z,15.57
2018-12-30T19:33:58.610Z,15.97
2018-12-30T19:36:33.097Z,15.67
2018-12-30T19:39:20.101Z,15.53
2018-12-30T19:41:56.337Z,15.87
2018-12-30T19:44:34.578Z,16.47
2018-12-30T19:47:04.894Z,16.53
2018-12-30T19:49:36.937Z,16.27
2018-12-30T19:52:09.248Z,16.10
2018-12-30T19:54:40.190Z,16.43
2018-12-30T19:57:13.023Z,17.00
2018-12-30T19:59:44.579Z,16.23
2018-12-30T20:02:15.601Z,16.53
2018-12-30T20:04:51.677Z,16.93
2018-12-30T20:07:24.678Z,17.00
2018-12-30T20:09:56.108Z,16.83
2018-12-30T20:12:32.816Z,16.40
2018-12-30T20:15:13.708Z,16.90
2018-12-30T20:17:48.155Z,17.37
2018-12-30T20:20:21.161Z,15.97
2018-12-30T20:22:54.343Z,16.90
2018-12-30T20:25:26.033Z,16.70
2018-12-30T20:27:56.898Z,16.87
2018-12-30T20:30:28.957Z,16.60
2018-12-30T20:33:01.020Z,16.50
2018-12-30T20:35:39.575Z,16.00
2018-12-30T20:38:13.454Z,16.43
2018-12-30T20:40:46.726Z,17.00
2018-12-30T20:43:18.438Z,16.13
2018-12-30T20:46:01.517Z,16.47
2018-12-30T20:48:43.741Z,17.10
2018-12-30T20:51:17.480Z,16.73
2018-12-30T20:53:52.783Z,16.50
2018-12-30T20:56:28.367Z,16.90
2018-12-30T20:59:06.833Z,16.13
2018-12-30T21:01:41.766Z,17.00
2018-12-30T21:04:12.989Z,17.33
2018-12-30T21:06:45.699Z,17.20
2018-12-30T21:09:18.117Z,16.97
2018-12-30T21:11:49.047Z,16.30
2018-12-30T21:14:22.134Z,17.40
2018-12-30T21:16:55.942Z,16.97
2018-12-30T21:19:28.345Z,15.97
2018-12-30T21:22:02.543Z,15.60
2018-12-30T21:24:37.633Z,15.17
2018-12-30T21:27:16.157Z,15.30
2018-12-30T21:29:59.704Z,14.97
2018-12-30T21:32:35.849Z,14.57
2018-12-30T21:35:23.950Z,14.80
2018-12-30T21:38:00.898Z,21.40
2018-12-30T21:40:34.077Z,17.20
2018-12-30T21:43:19.203Z,15.80
2018-12-30T21:45:52.172Z,14.70
2018-12-30T21:48:25.166Z,14.93
2018-12-30T21:50:58.934Z,15.77
2018-12-30T21:53:30.604Z,15.90
2018-12-30T21:56:06.306Z,14.60
2018-12-30T21:58:38.336Z,14.43
2018-12-30T22:01:19.926Z,15.27
2018-12-30T22:03:56.996Z,14.30
2018-12-30T22:06:33.776Z,14.10
2018-12-30T22:09:07.433Z,14.47
2018-12-30T22:11:42.635Z,13.97
2018-12-30T22:14:16.837Z,13.30
2018-12-30T22:16:53.510Z,13.47
2018-12-30T22:19:28.470Z,12.80
2018-12-30T22:22:13.738Z,11.93
2018-12-30T22:24:55.751Z,11.53
2018-12-30T22:27:26.968Z,11.73
2018-12-30T22:30:00.166Z,11.63
2018-12-30T22:32:31.598Z,12.00
2018-12-30T22:35:03.521Z,11.13
2018-12-30T22:37:50.187Z,11.80
2018-12-30T22:40:23.945Z,12.10
2018-12-30T22:42:58.883Z,12.50
2018-12-30T22:45:37.959Z,11.97
2018-12-30T22:48:14.862Z,12.20
2018-12-30T22:50:54.198Z,12.33
2018-12-30T22:53:28.512Z,12.97
2018-12-30T22:56:02.846Z,12.80
2018-12-30T22:58:34.306Z,12.47
2018-12-30T23:01:12.273Z,12.53
2018-12-30T23:03:46.433Z,12.77
2018-12-30T23:06:18.188Z,12.27
2018-12-30T23:08:49.412Z,12.47
2018-12-30T23:11:22.075Z,13.00
2018-12-30T23:13:53.986Z,12.13
2018-12-30T23:16:26.094Z,12.30
2018-12-30T23:18:59.318Z,12.20
2018-12-30T23:24:57.382Z,12.53
2018-12-30T23:27:33.359Z,12.27
2018-12-30T23:30:15.205Z,12.27
2018-12-30T23:32:56.866Z,12.40
2018-12-30T23:35:37.432Z,13.10
2018-12-30T23:38:17.091Z,12.87
2018-12-30T23:40:50.773Z,12.73
2018-12-30T23:43:25.324Z,13.40
2018-12-30T23:45:58.499Z,13.17
2018-12-30T23:48:33.753Z,13.13
2018-12-30T23:51:08.248Z,12.63
2018-12-30T23:53:59.991Z,12.40
2018-12-30T23:56:32.193Z,12.47
2018-12-30T23:59:04.924Z,12.80
